sensor_id;sensor_type;location;lat;lon;timestamp;P1;durP1;ratioP1;P2;durP2;ratioP2
16845;SDS011;8539;53.188;8.696;2023-03-03T00:01:10;43.72;;;21.80;;
16845;SDS011;8539;53.188;8.696;2023-03-03T00:03:36;45.72;;;20.40;;
16845;SDS011;8539;53.188;8.696;2023-03-03T00:06:03;38.85;;;20.58;;
16845;SDS011;8539;53.188;8.696;2023-03-03T00:08:30;42.40;;;20.83;;
16845;SDS011;8539;53.188;8.696;2023-03-03T00:10:57;33.80;;;19.48;;
16845;SDS011;8539;53.188;8.696;2023-03-03T00:13:26;44.20;;;19.88;;
16845;SDS011;8539;53.188;8.696;2023-03-03T00:15:53;39.47;;;23.77;;
16845;SDS011;8539;53.188;8.696;2023-03-03T00:18:32;40.58;;;19.08;;
16845;SDS011;8539;53.188;8.696;2023-03-03T00:21:00;39.70;;;18.63;;
16845;SDS011;8539;53.188;8.696;2023-03-03T00:23:45;34.45;;;17.45;;
16845;SDS011;8539;53.188;8.696;2023-03-03T00:26:19;31.15;;;16.65;;
16845;SDS011;8539;53.188;8.696;2023-03-03T00:32:07;38.58;;;18.73;;
16845;SDS011;8539;53.188;8.696;2023-03-03T00:34:41;39.60;;;20.15;;
16845;SDS011;8539;53.188;8.696;2023-03-03T00:39:57;43.15;;;19.33;;
16845;SDS011;8539;53.188;8.696;2023-03-03T00:42:48;40.63;;;20.50;;
16845;SDS011;8539;53.188;8.696;2023-03-03T00:45:39;41.55;;;20.13;;
16845;SDS011;8539;53.188;8.696;2023-03-03T00:50:46;53.97;;;21.80;;
16845;SDS011;8539;53.188;8.696;2023-03-03T00:53:14;42.58;;;20.55;;
16845;SDS011;8539;53.188;8.696;2023-03-03T00:55:41;34.40;;;19.60;;
16845;SDS011;8539;53.188;8.696;2023-03-03T00:58:08;41.83;;;20.52;;
16845;SDS011;8539;53.188;8.696;2023-03-03T01:00:34;45.78;;;23.40;;
16845;SDS011;8539;53.188;8.696;2023-03-03T01:03:02;48.28;;;21.25;;
16845;SDS011;8539;53.188;8.696;2023-03-03T01:05:30;40.55;;;21.85;;
16845;SDS011;8539;53.188;8.696;2023-03-03T01:07:56;42.92;;;20.38;;
16845;SDS011;8539;53.188;8.696;2023-03-03T01:10:23;38.10;;;20.42;;
16845;SDS011;8539;53.188;8.696;2023-03-03T01:12:51;39.88;;;20.05;;
16845;SDS011;8539;53.188;8.696;2023-03-03T01:15:17;47.08;;;22.27;;
16845;SDS011;8539;53.188;8.696;2023-03-03T01:17:43;40.58;;;19.92;;
16845;SDS011;8539;53.188;8.696;2023-03-03T01:20:10;37.25;;;19.42;;
16845;SDS011;8539;53.188;8.696;2023-03-03T01:22:38;36.25;;;19.02;;
16845;SDS011;8539;53.188;8.696;2023-03-03T01:25:04;43.85;;;21.27;;
16845;SDS011;8539;53.188;8.696;2023-03-03T01:27:31;42.60;;;19.73;;
16845;SDS011;8539;53.188;8.696;2023-03-03T01:29:57;51.95;;;23.83;;
16845;SDS011;8539;53.188;8.696;2023-03-03T01:32:23;46.70;;;22.13;;
16845;SDS011;8539;53.188;8.696;2023-03-03T01:34:50;45.50;;;21.63;;
16845;SDS011;8539;53.188;8.696;2023-03-03T01:37:16;43.45;;;22.02;;
16845;SDS011;8539;53.188;8.696;2023-03-03T01:39:42;42.30;;;22.77;;
16845;SDS011;8539;53.188;8.696;2023-03-03T01:42:13;42.25;;;20.58;;
16845;SDS011;8539;53.188;8.696;2023-03-03T01:44:40;47.92;;;22.75;;
16845;SDS011;8539;53.188;8.696;2023-03-03T01:47:06;51.13;;;21.98;;
16845;SDS011;8539;53.188;8.696;2023-03-03T01:52:38;59.63;;;25.52;;
16845;SDS011;8539;53.188;8.696;2023-03-03T01:55:10;56.17;;;25.92;;
16845;SDS011;8539;53.188;8.696;2023-03-03T01:57:40;61.05;;;26.30;;
16845;SDS011;8539;53.188;8.696;2023-03-03T02:00:13;68.60;;;26.48;;
16845;SDS011;8539;53.188;8.696;2023-03-03T02:02:40;62.25;;;26.27;;
16845;SDS011;8539;53.188;8.696;2023-03-03T02:05:08;60.25;;;24.80;;
16845;SDS011;8539;53.188;8.696;2023-03-03T02:07:35;61.90;;;27.55;;
16845;SDS011;8539;53.188;8.696;2023-03-03T02:12:41;63.28;;;25.55;;
16845;SDS011;8539;53.188;8.696;2023-03-03T02:17:45;58.90;;;25.17;;
16845;SDS011;8539;53.188;8.696;2023-03-03T02:20:17;58.45;;;25.80;;
16845;SDS011;8539;53.188;8.696;2023-03-03T02:23:04;69.85;;;28.65;;
16845;SDS011;8539;53.188;8.696;2023-03-03T02:26:06;60.28;;;27.75;;
16845;SDS011;8539;53.188;8.696;2023-03-03T02:28:51;72.88;;;27.55;;
16845;SDS011;8539;53.188;8.696;2023-03-03T02:31:18;73.47;;;28.25;;
16845;SDS011;8539;53.188;8.696;2023-03-03T02:33:47;77.03;;;28.05;;
16845;SDS011;8539;53.188;8.696;2023-03-03T02:36:16;72.75;;;28.52;;
16845;SDS011;8539;53.188;8.696;2023-03-03T02:41:45;66.97;;;24.65;;
16845;SDS011;8539;53.188;8.696;2023-03-03T02:44:13;75.18;;;30.35;;
16845;SDS011;8539;53.188;8.696;2023-03-03T02:46:43;75.65;;;27.63;;
16845;SDS011;8539;53.188;8.696;2023-03-03T02:49:12;74.28;;;29.27;;
16845;SDS011;8539;53.188;8.696;2023-03-03T02:51:39;60.97;;;27.33;;
16845;SDS011;8539;53.188;8.696;2023-03-03T02:54:06;64.10;;;27.13;;
16845;SDS011;8539;53.188;8.696;2023-03-03T02:56:33;63.42;;;26.98;;
16845;SDS011;8539;53.188;8.696;2023-03-03T02:59:00;61.75;;;26.80;;
16845;SDS011;8539;53.188;8.696;2023-03-03T03:01:26;68.05;;;29.20;;
16845;SDS011;8539;53.188;8.696;2023-03-03T03:03:52;74.75;;;28.55;;
16845;SDS011;8539;53.188;8.696;2023-03-03T03:06:18;74.20;;;30.83;;
16845;SDS011;8539;53.188;8.696;2023-03-03T03:08:44;77.18;;;30.10;;
16845;SDS011;8539;53.188;8.696;2023-03-03T03:11:11;75.82;;;30.55;;
16845;SDS011;8539;53.188;8.696;2023-03-03T03:13:37;83.45;;;32.78;;
16845;SDS011;8539;53.188;8.696;2023-03-03T03:16:03;74.30;;;30.20;;
16845;SDS011;8539;53.188;8.696;2023-03-03T03:18:29;77.97;;;27.88;;
16845;SDS011;8539;53.188;8.696;2023-03-03T03:20:55;63.25;;;27.58;;
16845;SDS011;8539;53.188;8.696;2023-03-03T03:23:21;66.72;;;28.73;;
16845;SDS011;8539;53.188;8.696;2023-03-03T03:25:47;65.05;;;28.80;;
16845;SDS011;8539;53.188;8.696;2023-03-03T03:28:14;61.15;;;27.75;;
16845;SDS011;8539;53.188;8.696;2023-03-03T03:30:42;67.10;;;33.28;;
16845;SDS011;8539;53.188;8.696;2023-03-03T03:33:10;66.25;;;29.65;;
16845;SDS011;8539;53.188;8.696;2023-03-03T03:35:38;62.03;;;27.23;;
16845;SDS011;8539;53.188;8.696;2023-03-03T03:38:10;61.15;;;25.10;;
16845;SDS011;8539;53.188;8.696;2023-03-03T03:40:36;58.53;;;25.73;;
16845;SDS011;8539;53.188;8.696;2023-03-03T03:43:03;53.00;;;25.40;;
16845;SDS011;8539;53.188;8.696;2023-03-03T03:45:29;53.67;;;23.20;;
16845;SDS011;8539;53.188;8.696;2023-03-03T03:47:55;48.95;;;24.25;;
16845;SDS011;8539;53.188;8.696;2023-03-03T03:50:21;57.30;;;23.52;;
16845;SDS011;8539;53.188;8.696;2023-03-03T03:52:47;42.80;;;21.58;;
16845;SDS011;8539;53.188;8.696;2023-03-03T03:55:13;49.67;;;22.15;;
16845;SDS011;8539;53.188;8.696;2023-03-03T03:57:40;46.78;;;23.08;;
16845;SDS011;8539;53.188;8.696;2023-03-03T04:00:07;44.08;;;20.10;;
16845;SDS011;8539;53.188;8.696;2023-03-03T04:02:34;39.47;;;20.13;;
16845;SDS011;8539;53.188;8.696;2023-03-03T04:05:01;30.52;;;15.82;;
16845;SDS011;8539;53.188;8.696;2023-03-03T04:07:27;26.58;;;14.90;;
16845;SDS011;8539;53.188;8.696;2023-03-03T04:09:53;37.85;;;15.05;;
16845;SDS011;8539;53.188;8.696;2023-03-03T04:12:20;34.08;;;14.50;;
16845;SDS011;8539;53.188;8.696;2023-03-03T04:14:46;29.75;;;14.95;;
16845;SDS011;8539;53.188;8.696;2023-03-03T04:17:21;29.23;;;14.07;;
16845;SDS011;8539;53.188;8.696;2023-03-03T04:19:52;28.63;;;14.85;;
16845;SDS011;8539;53.188;8.696;2023-03-03T04:22:18;29.45;;;15.77;;
16845;SDS011;8539;53.188;8.696;2023-03-03T04:24:44;25.50;;;13.95;;
16845;SDS011;8539;53.188;8.696;2023-03-03T04:27:13;42.63;;;17.15;;
16845;SDS011;8539;53.188;8.696;2023-03-03T04:29:40;38.88;;;18.63;;
16845;SDS011;8539;53.188;8.696;2023-03-03T04:32:06;31.55;;;14.55;;
16845;SDS011;8539;53.188;8.696;2023-03-03T04:34:32;43.13;;;16.88;;
16845;SDS011;8539;53.188;8.696;2023-03-03T04:36:58;42.72;;;16.35;;
16845;SDS011;8539;53.188;8.696;2023-03-03T04:39:25;35.60;;;16.58;;
16845;SDS011;8539;53.188;8.696;2023-03-03T04:41:51;32.22;;;17.40;;
16845;SDS011;8539;53.188;8.696;2023-03-03T04:44:17;36.50;;;16.65;;
16845;SDS011;8539;53.188;8.696;2023-03-03T04:46:43;36.72;;;16.63;;
16845;SDS011;8539;53.188;8.696;2023-03-03T04:49:09;32.72;;;16.85;;
16845;SDS011;8539;53.188;8.696;2023-03-03T04:51:35;33.42;;;15.68;;
16845;SDS011;8539;53.188;8.696;2023-03-03T04:54:01;30.23;;;15.82;;
16845;SDS011;8539;53.188;8.696;2023-03-03T04:56:29;28.75;;;15.38;;
16845;SDS011;8539;53.188;8.696;2023-03-03T04:58:56;30.05;;;16.05;;
16845;SDS011;8539;53.188;8.696;2023-03-03T05:01:22;37.88;;;18.42;;
16845;SDS011;8539;53.188;8.696;2023-03-03T05:03:48;32.40;;;16.00;;
16845;SDS011;8539;53.188;8.696;2023-03-03T05:06:14;32.92;;;16.80;;
16845;SDS011;8539;53.188;8.696;2023-03-03T05:08:43;32.08;;;16.42;;
16845;SDS011;8539;53.188;8.696;2023-03-03T05:11:10;41.92;;;17.17;;
16845;SDS011;8539;53.188;8.696;2023-03-03T05:13:36;36.65;;;16.42;;
16845;SDS011;8539;53.188;8.696;2023-03-03T05:16:02;37.08;;;16.25;;
16845;SDS011;8539;53.188;8.696;2023-03-03T05:18:28;30.42;;;16.48;;
16845;SDS011;8539;53.188;8.696;2023-03-03T05:20:54;30.83;;;15.02;;
16845;SDS011;8539;53.188;8.696;2023-03-03T05:23:21;34.38;;;16.98;;
16845;SDS011;8539;53.188;8.696;2023-03-03T05:25:47;34.90;;;17.88;;
16845;SDS011;8539;53.188;8.696;2023-03-03T05:28:13;68.40;;;23.65;;
16845;SDS011;8539;53.188;8.696;2023-03-03T05:30:41;36.15;;;17.85;;
16845;SDS011;8539;53.188;8.696;2023-03-03T05:33:09;37.33;;;17.92;;
16845;SDS011;8539;53.188;8.696;2023-03-03T05:35:37;33.75;;;17.40;;
16845;SDS011;8539;53.188;8.696;2023-03-03T05:38:03;37.70;;;18.48;;
16845;SDS011;8539;53.188;8.696;2023-03-03T05:40:29;35.38;;;18.25;;
16845;SDS011;8539;53.188;8.696;2023-03-03T05:42:55;39.30;;;18.23;;
16845;SDS011;8539;53.188;8.696;2023-03-03T05:45:22;44.38;;;19.00;;
16845;SDS011;8539;53.188;8.696;2023-03-03T05:47:49;47.03;;;19.35;;
16845;SDS011;8539;53.188;8.696;2023-03-03T05:50:17;43.47;;;21.33;;
16845;SDS011;8539;53.188;8.696;2023-03-03T05:52:46;39.58;;;19.73;;
16845;SDS011;8539;53.188;8.696;2023-03-03T05:55:16;44.22;;;21.92;;
16845;SDS011;8539;53.188;8.696;2023-03-03T05:57:43;46.95;;;21.90;;
16845;SDS011;8539;53.188;8.696;2023-03-03T06:00:10;48.15;;;21.80;;
16845;SDS011;8539;53.188;8.696;2023-03-03T06:02:36;46.45;;;19.90;;
16845;SDS011;8539;53.188;8.696;2023-03-03T06:05:03;41.03;;;19.00;;
16845;SDS011;8539;53.188;8.696;2023-03-03T06:07:29;42.35;;;20.15;;
16845;SDS011;8539;53.188;8.696;2023-03-03T06:09:55;40.25;;;19.05;;
16845;SDS011;8539;53.188;8.696;2023-03-03T06:12:21;46.38;;;20.80;;
16845;SDS011;8539;53.188;8.696;2023-03-03T06:14:47;40.88;;;18.20;;
16845;SDS011;8539;53.188;8.696;2023-03-03T06:17:13;37.17;;;16.67;;
16845;SDS011;8539;53.188;8.696;2023-03-03T06:19:40;33.92;;;17.25;;
16845;SDS011;8539;53.188;8.696;2023-03-03T06:22:06;33.00;;;16.90;;
16845;SDS011;8539;53.188;8.696;2023-03-03T06:24:33;31.70;;;14.13;;
16845;SDS011;8539;53.188;8.696;2023-03-03T06:26:59;30.67;;;14.95;;
16845;SDS011;8539;53.188;8.696;2023-03-03T06:29:26;30.35;;;15.23;;
16845;SDS011;8539;53.188;8.696;2023-03-03T06:31:52;24.85;;;13.68;;
16845;SDS011;8539;53.188;8.696;2023-03-03T06:34:19;27.63;;;13.27;;
16845;SDS011;8539;53.188;8.696;2023-03-03T06:36:45;22.63;;;13.55;;
16845;SDS011;8539;53.188;8.696;2023-03-03T06:39:12;27.80;;;12.43;;
16845;SDS011;8539;53.188;8.696;2023-03-03T06:41:38;24.35;;;13.68;;
16845;SDS011;8539;53.188;8.696;2023-03-03T06:44:04;22.50;;;12.43;;
16845;SDS011;8539;53.188;8.696;2023-03-03T06:46:30;25.65;;;13.60;;
16845;SDS011;8539;53.188;8.696;2023-03-03T06:48:56;23.52;;;12.10;;
16845;SDS011;8539;53.188;8.696;2023-03-03T06:51:35;25.98;;;12.65;;
16845;SDS011;8539;53.188;8.696;2023-03-03T06:54:09;24.07;;;13.50;;
16845;SDS011;8539;53.188;8.696;2023-03-03T06:56:40;20.27;;;11.10;;
16845;SDS011;8539;53.188;8.696;2023-03-03T06:59:15;21.63;;;12.40;;
16845;SDS011;8539;53.188;8.696;2023-03-03T07:01:43;19.50;;;12.43;;
16845;SDS011;8539;53.188;8.696;2023-03-03T07:04:13;24.95;;;13.68;;
16845;SDS011;8539;53.188;8.696;2023-03-03T07:06:43;23.42;;;12.60;;
16845;SDS011;8539;53.188;8.696;2023-03-03T07:09:13;25.95;;;13.52;;
16845;SDS011;8539;53.188;8.696;2023-03-03T07:12:04;22.27;;;12.70;;
16845;SDS011;8539;53.188;8.696;2023-03-03T07:14:45;26.35;;;11.95;;
16845;SDS011;8539;53.188;8.696;2023-03-03T07:17:19;23.17;;;12.02;;
16845;SDS011;8539;53.188;8.696;2023-03-03T07:19:46;26.23;;;13.48;;
16845;SDS011;8539;53.188;8.696;2023-03-03T07:22:14;21.20;;;12.43;;
16845;SDS011;8539;53.188;8.696;2023-03-03T07:24:43;26.85;;;12.43;;
16845;SDS011;8539;53.188;8.696;2023-03-03T07:27:13;24.45;;;13.40;;
16845;SDS011;8539;53.188;8.696;2023-03-03T07:29:51;29.02;;;13.13;;
16845;SDS011;8539;53.188;8.696;2023-03-03T07:35:46;23.88;;;13.88;;
16845;SDS011;8539;53.188;8.696;2023-03-03T07:38:00;35.45;;;14.70;;
16845;SDS011;8539;53.188;8.696;2023-03-03T07:42:58;20.92;;;11.80;;
16845;SDS011;8539;53.188;8.696;2023-03-03T07:45:26;15.70;;;10.32;;
16845;SDS011;8539;53.188;8.696;2023-03-03T07:47:56;15.27;;;9.15;;
16845;SDS011;8539;53.188;8.696;2023-03-03T07:50:25;14.45;;;8.50;;
16845;SDS011;8539;53.188;8.696;2023-03-03T07:52:55;13.98;;;8.77;;
16845;SDS011;8539;53.188;8.696;2023-03-03T07:55:29;11.30;;;7.38;;
16845;SDS011;8539;53.188;8.696;2023-03-03T08:03:41;12.40;;;8.05;;
16845;SDS011;8539;53.188;8.696;2023-03-03T08:09:18;16.45;;;9.50;;
16845;SDS011;8539;53.188;8.696;2023-03-03T08:14:55;12.00;;;7.82;;
16845;SDS011;8539;53.188;8.696;2023-03-03T08:17:35;14.63;;;8.20;;
16845;SDS011;8539;53.188;8.696;2023-03-03T08:20:47;12.23;;;8.52;;
16845;SDS011;8539;53.188;8.696;2023-03-03T08:22:53;12.43;;;7.80;;
16845;SDS011;8539;53.188;8.696;2023-03-03T08:25:19;11.43;;;7.32;;
16845;SDS011;8539;53.188;8.696;2023-03-03T08:27:45;14.48;;;8.27;;
16845;SDS011;8539;53.188;8.696;2023-03-03T08:30:12;15.45;;;7.32;;
16845;SDS011;8539;53.188;8.696;2023-03-03T08:32:38;14.93;;;8.55;;
16845;SDS011;8539;53.188;8.696;2023-03-03T08:35:04;13.00;;;7.22;;
16845;SDS011;8539;53.188;8.696;2023-03-03T08:37:30;15.45;;;8.25;;
16845;SDS011;8539;53.188;8.696;2023-03-03T08:39:56;13.77;;;8.13;;
16845;SDS011;8539;53.188;8.696;2023-03-03T08:42:22;11.43;;;7.70;;
16845;SDS011;8539;53.188;8.696;2023-03-03T08:44:48;12.35;;;7.63;;
16845;SDS011;8539;53.188;8.696;2023-03-03T08:47:15;13.25;;;8.23;;
16845;SDS011;8539;53.188;8.696;2023-03-03T08:49:41;13.07;;;8.25;;
16845;SDS011;8539;53.188;8.696;2023-03-03T08:52:07;12.25;;;7.95;;
16845;SDS011;8539;53.188;8.696;2023-03-03T08:54:33;15.90;;;7.95;;
16845;SDS011;8539;53.188;8.696;2023-03-03T08:56:59;11.32;;;8.27;;
16845;SDS011;8539;53.188;8.696;2023-03-03T08:59:25;14.25;;;8.32;;
16845;SDS011;8539;53.188;8.696;2023-03-03T09:01:51;12.82;;;8.50;;
16845;SDS011;8539;53.188;8.696;2023-03-03T09:04:17;13.35;;;8.48;;
16845;SDS011;8539;53.188;8.696;2023-03-03T09:06:43;11.57;;;7.65;;
16845;SDS011;8539;53.188;8.696;2023-03-03T09:09:09;19.48;;;9.95;;
16845;SDS011;8539;53.188;8.696;2023-03-03T09:11:35;10.43;;;7.72;;
16845;SDS011;8539;53.188;8.696;2023-03-03T09:14:05;16.30;;;8.93;;
16845;SDS011;8539;53.188;8.696;2023-03-03T09:16:38;20.00;;;9.07;;
16845;SDS011;8539;53.188;8.696;2023-03-03T09:19:23;14.70;;;7.78;;
16845;SDS011;8539;53.188;8.696;2023-03-03T09:21:56;12.27;;;8.73;;
16845;SDS011;8539;53.188;8.696;2023-03-03T09:24:28;11.55;;;6.10;;
16845;SDS011;8539;53.188;8.696;2023-03-03T09:26:55;9.70;;;7.75;;
16845;SDS011;8539;53.188;8.696;2023-03-03T09:29:26;14.90;;;6.95;;
16845;SDS011;8539;53.188;8.696;2023-03-03T09:31:54;10.70;;;7.72;;
16845;SDS011;8539;53.188;8.696;2023-03-03T09:37:12;12.23;;;7.80;;
16845;SDS011;8539;53.188;8.696;2023-03-03T09:39:39;12.35;;;7.95;;
16845;SDS011;8539;53.188;8.696;2023-03-03T10:04:24;13.38;;;6.85;;
16845;SDS011;8539;53.188;8.696;2023-03-03T10:09:59;15.80;;;7.35;;
16845;SDS011;8539;53.188;8.696;2023-03-03T10:18:22;11.55;;;6.07;;
16845;SDS011;8539;53.188;8.696;2023-03-03T10:26:22;8.35;;;5.57;;
16845;SDS011;8539;53.188;8.696;2023-03-03T10:34:04;7.82;;;5.82;;
16845;SDS011;8539;53.188;8.696;2023-03-03T10:50:40;5.70;;;3.92;;
16845;SDS011;8539;53.188;8.696;2023-03-03T11:01:28;3.80;;;2.33;;
16845;SDS011;8539;53.188;8.696;2023-03-03T11:04:12;5.35;;;2.50;;
16845;SDS011;8539;53.188;8.696;2023-03-03T11:07:10;1.95;;;1.10;;
16845;SDS011;8539;53.188;8.696;2023-03-03T11:10:01;4.18;;;1.02;;
16845;SDS011;8539;53.188;8.696;2023-03-03T11:13:22;6.47;;;1.20;;
16845;SDS011;8539;53.188;8.696;2023-03-03T11:16:46;3.13;;;1.20;;
16845;SDS011;8539;53.188;8.696;2023-03-03T11:19:22;3.80;;;1.67;;
16845;SDS011;8539;53.188;8.696;2023-03-03T11:21:48;4.28;;;1.85;;
16845;SDS011;8539;53.188;8.696;2023-03-03T11:24:18;5.88;;;2.33;;
16845;SDS011;8539;53.188;8.696;2023-03-03T11:32:29;5.78;;;2.75;;
16845;SDS011;8539;53.188;8.696;2023-03-03T11:35:16;7.72;;;3.22;;
16845;SDS011;8539;53.188;8.696;2023-03-03T11:41:02;5.00;;;2.88;;
16845;SDS011;8539;53.188;8.696;2023-03-03T11:43:43;5.40;;;2.47;;
16845;SDS011;8539;53.188;8.696;2023-03-03T11:46:15;3.40;;;2.58;;
16845;SDS011;8539;53.188;8.696;2023-03-03T11:48:57;7.05;;;2.90;;
16845;SDS011;8539;53.188;8.696;2023-03-03T11:51:33;5.50;;;2.42;;
16845;SDS011;8539;53.188;8.696;2023-03-03T11:56:53;6.22;;;2.47;;
16845;SDS011;8539;53.188;8.696;2023-03-03T11:59:43;6.07;;;2.75;;
16845;SDS011;8539;53.188;8.696;2023-03-03T12:03:01;4.28;;;2.63;;
16845;SDS011;8539;53.188;8.696;2023-03-03T12:13:09;5.18;;;2.45;;
16845;SDS011;8539;53.188;8.696;2023-03-03T12:18:22;3.17;;;1.85;;
16845;SDS011;8539;53.188;8.696;2023-03-03T12:29:53;6.13;;;3.15;;
16845;SDS011;8539;53.188;8.696;2023-03-03T12:33:03;3.22;;;2.55;;
16845;SDS011;8539;53.188;8.696;2023-03-03T12:35:38;4.45;;;1.67;;
16845;SDS011;8539;53.188;8.696;2023-03-03T12:41:15;2.25;;;1.70;;
16845;SDS011;8539;53.188;8.696;2023-03-03T12:43:54;3.28;;;2.00;;
16845;SDS011;8539;53.188;8.696;2023-03-03T12:49:08;3.72;;;2.03;;
16845;SDS011;8539;53.188;8.696;2023-03-03T12:51:47;3.17;;;1.63;;
16845;SDS011;8539;53.188;8.696;2023-03-03T13:05:23;3.33;;;1.50;;
16845;SDS011;8539;53.188;8.696;2023-03-03T13:10:45;3.72;;;1.95;;
16845;SDS011;8539;53.188;8.696;2023-03-03T13:23:56;6.15;;;2.03;;
16845;SDS011;8539;53.188;8.696;2023-03-03T13:26:57;4.10;;;1.33;;
16845;SDS011;8539;53.188;8.696;2023-03-03T13:30:11;5.00;;;1.58;;
16845;SDS011;8539;53.188;8.696;2023-03-03T13:38:01;6.00;;;2.20;;
16845;SDS011;8539;53.188;8.696;2023-03-03T13:40:37;2.40;;;1.85;;
16845;SDS011;8539;53.188;8.696;2023-03-03T13:43:16;1.73;;;1.15;;
16845;SDS011;8539;53.188;8.696;2023-03-03T13:46:02;1.00;;;0.82;;
16845;SDS011;8539;53.188;8.696;2023-03-03T13:48:47;5.32;;;1.50;;
16845;SDS011;8539;53.188;8.696;2023-03-03T13:51:36;1.87;;;1.53;;
16845;SDS011;8539;53.188;8.696;2023-03-03T14:05:49;2.92;;;1.70;;
16845;SDS011;8539;53.188;8.696;2023-03-03T14:11:20;4.00;;;2.55;;
16845;SDS011;8539;53.188;8.696;2023-03-03T14:16:56;4.90;;;2.05;;
16845;SDS011;8539;53.188;8.696;2023-03-03T14:29:50;3.08;;;1.63;;
16845;SDS011;8539;53.188;8.696;2023-03-03T14:32:20;2.42;;;1.70;;
16845;SDS011;8539;53.188;8.696;2023-03-03T14:34:59;3.33;;;1.90;;
16845;SDS011;8539;53.188;8.696;2023-03-03T14:37:41;6.70;;;2.28;;
16845;SDS011;8539;53.188;8.696;2023-03-03T14:42:55;2.53;;;2.05;;
16845;SDS011;8539;53.188;8.696;2023-03-03T14:45:32;5.75;;;1.90;;
16845;SDS011;8539;53.188;8.696;2023-03-03T14:48:16;4.68;;;2.08;;
16845;SDS011;8539;53.188;8.696;2023-03-03T14:53:36;5.07;;;2.75;;
16845;SDS011;8539;53.188;8.696;2023-03-03T14:59:21;4.20;;;2.40;;
16845;SDS011;8539;53.188;8.696;2023-03-03T15:02:31;5.50;;;2.25;;
16845;SDS011;8539;53.188;8.696;2023-03-03T15:04:38;8.40;;;2.63;;
16845;SDS011;8539;53.188;8.696;2023-03-03T15:10:00;3.25;;;2.70;;
16845;SDS011;8539;53.188;8.696;2023-03-03T15:12:37;6.97;;;3.10;;
16845;SDS011;8539;53.188;8.696;2023-03-03T15:17:35;6.53;;;3.33;;
16845;SDS011;8539;53.188;8.696;2023-03-03T15:22:48;6.53;;;3.35;;
16845;SDS011;8539;53.188;8.696;2023-03-03T15:30:50;8.18;;;3.42;;
16845;SDS011;8539;53.188;8.696;2023-03-03T15:36:00;7.40;;;3.00;;
16845;SDS011;8539;53.188;8.696;2023-03-03T15:38:41;7.72;;;3.03;;
16845;SDS011;8539;53.188;8.696;2023-03-03T16:03:07;3.70;;;1.50;;
16845;SDS011;8539;53.188;8.696;2023-03-03T16:05:55;3.90;;;1.63;;
16845;SDS011;8539;53.188;8.696;2023-03-03T16:11:41;5.45;;;1.58;;
16845;SDS011;8539;53.188;8.696;2023-03-03T16:22:33;15.07;;;1.95;;
16845;SDS011;8539;53.188;8.696;2023-03-03T16:25:25;5.60;;;1.50;;
16845;SDS011;8539;53.188;8.696;2023-03-03T16:30:59;9.55;;;2.35;;
16845;SDS011;8539;53.188;8.696;2023-03-03T16:44:33;10.07;;;2.75;;
16845;SDS011;8539;53.188;8.696;2023-03-03T16:47:48;5.85;;;2.20;;
16845;SDS011;8539;53.188;8.696;2023-03-03T16:50:36;9.25;;;1.80;;
16845;SDS011;8539;53.188;8.696;2023-03-03T17:01:13;6.32;;;3.50;;
16845;SDS011;8539;53.188;8.696;2023-03-03T17:03:59;9.00;;;3.50;;
16845;SDS011;8539;53.188;8.696;2023-03-03T17:06:45;12.88;;;2.75;;
16845;SDS011;8539;53.188;8.696;2023-03-03T17:14:55;11.23;;;3.30;;
16845;SDS011;8539;53.188;8.696;2023-03-03T17:17:29;19.42;;;3.47;;
16845;SDS011;8539;53.188;8.696;2023-03-03T17:25:56;16.63;;;3.97;;
16845;SDS011;8539;53.188;8.696;2023-03-03T17:47:15;17.40;;;4.20;;
16845;SDS011;8539;53.188;8.696;2023-03-03T17:58:05;13.93;;;4.10;;
16845;SDS011;8539;53.188;8.696;2023-03-03T18:09:30;21.17;;;4.30;;
16845;SDS011;8539;53.188;8.696;2023-03-03T18:12:28;19.40;;;5.55;;
16845;SDS011;8539;53.188;8.696;2023-03-03T18:18:23;26.45;;;5.40;;
16845;SDS011;8539;53.188;8.696;2023-03-03T18:21:09;20.65;;;3.75;;
16845;SDS011;8539;53.188;8.696;2023-03-03T18:23:40;19.25;;;3.67;;
16845;SDS011;8539;53.188;8.696;2023-03-03T18:29:06;25.02;;;4.80;;
16845;SDS011;8539;53.188;8.696;2023-03-03T18:31:45;21.58;;;4.97;;
16845;SDS011;8539;53.188;8.696;2023-03-03T18:34:36;20.52;;;4.22;;
16845;SDS011;8539;53.188;8.696;2023-03-03T18:42:37;25.45;;;5.90;;
16845;SDS011;8539;53.188;8.696;2023-03-03T18:45:48;24.27;;;5.60;;
16845;SDS011;8539;53.188;8.696;2023-03-03T18:48:13;23.92;;;4.93;;
16845;SDS011;8539;53.188;8.696;2023-03-03T18:55:45;25.25;;;5.05;;
16845;SDS011;8539;53.188;8.696;2023-03-03T19:00:49;17.38;;;4.43;;
16845;SDS011;8539;53.188;8.696;2023-03-03T19:05:58;16.10;;;3.58;;
16845;SDS011;8539;53.188;8.696;2023-03-03T19:14:46;25.33;;;4.70;;
16845;SDS011;8539;53.188;8.696;2023-03-03T19:16:50;29.50;;;5.90;;
16845;SDS011;8539;53.188;8.696;2023-03-03T19:19:18;21.30;;;5.90;;
16845;SDS011;8539;53.188;8.696;2023-03-03T19:21:51;18.90;;;4.93;;
16845;SDS011;8539;53.188;8.696;2023-03-03T19:24:39;20.83;;;4.57;;
16845;SDS011;8539;53.188;8.696;2023-03-03T19:27:18;26.08;;;4.32;;
16845;SDS011;8539;53.188;8.696;2023-03-03T19:33:04;18.50;;;4.30;;
16845;SDS011;8539;53.188;8.696;2023-03-03T19:35:41;21.30;;;5.28;;
16845;SDS011;8539;53.188;8.696;2023-03-03T19:41:13;24.13;;;6.78;;
16845;SDS011;8539;53.188;8.696;2023-03-03T19:44:30;19.52;;;4.05;;
16845;SDS011;8539;53.188;8.696;2023-03-03T19:52:28;19.02;;;6.03;;
16845;SDS011;8539;53.188;8.696;2023-03-03T20:00:45;27.63;;;5.00;;
16845;SDS011;8539;53.188;8.696;2023-03-03T20:06:11;26.30;;;6.53;;
16845;SDS011;8539;53.188;8.696;2023-03-03T20:09:01;25.30;;;6.40;;
16845;SDS011;8539;53.188;8.696;2023-03-03T20:16:50;31.10;;;4.65;;
16845;SDS011;8539;53.188;8.696;2023-03-03T20:35:35;25.33;;;6.15;;
16845;SDS011;8539;53.188;8.696;2023-03-03T20:44:31;26.20;;;5.30;;
16845;SDS011;8539;53.188;8.696;2023-03-03T20:58:16;26.23;;;6.53;;
16845;SDS011;8539;53.188;8.696;2023-03-03T21:03:36;23.27;;;4.38;;
16845;SDS011;8539;53.188;8.696;2023-03-03T21:06:05;19.30;;;3.63;;
16845;SDS011;8539;53.188;8.696;2023-03-03T21:08:53;22.13;;;5.20;;
16845;SDS011;8539;53.188;8.696;2023-03-03T21:13:55;24.45;;;5.32;;
16845;SDS011;8539;53.188;8.696;2023-03-03T21:18:59;31.67;;;6.53;;
16845;SDS011;8539;53.188;8.696;2023-03-03T21:21:35;24.27;;;4.38;;
16845;SDS011;8539;53.188;8.696;2023-03-03T21:24:02;12.98;;;3.30;;
16845;SDS011;8539;53.188;8.696;2023-03-03T21:32:08;17.55;;;3.78;;
16845;SDS011;8539;53.188;8.696;2023-03-03T21:34:41;22.33;;;4.45;;
16845;SDS011;8539;53.188;8.696;2023-03-03T21:37:08;21.58;;;5.20;;
16845;SDS011;8539;53.188;8.696;2023-03-03T21:39:37;30.60;;;5.97;;
16845;SDS011;8539;53.188;8.696;2023-03-03T21:42:04;19.13;;;3.72;;
16845;SDS011;8539;53.188;8.696;2023-03-03T21:44:45;22.05;;;4.45;;
16845;SDS011;8539;53.188;8.696;2023-03-03T21:47:20;20.65;;;4.40;;
16845;SDS011;8539;53.188;8.696;2023-03-03T21:49:48;21.83;;;4.03;;
16845;SDS011;8539;53.188;8.696;2023-03-03T21:52:17;14.38;;;4.07;;
16845;SDS011;8539;53.188;8.696;2023-03-03T21:54:45;23.63;;;3.50;;
16845;SDS011;8539;53.188;8.696;2023-03-03T21:57:12;19.17;;;5.10;;
16845;SDS011;8539;53.188;8.696;2023-03-03T21:59:38;19.92;;;4.60;;
16845;SDS011;8539;53.188;8.696;2023-03-03T22:02:05;39.83;;;8.60;;
16845;SDS011;8539;53.188;8.696;2023-03-03T22:04:32;20.05;;;4.65;;
16845;SDS011;8539;53.188;8.696;2023-03-03T22:06:59;17.77;;;3.17;;
16845;SDS011;8539;53.188;8.696;2023-03-03T22:09:26;15.80;;;3.38;;
16845;SDS011;8539;53.188;8.696;2023-03-03T22:11:52;19.17;;;3.42;;
16845;SDS011;8539;53.188;8.696;2023-03-03T22:14:18;20.75;;;3.67;;
16845;SDS011;8539;53.188;8.696;2023-03-03T22:16:44;24.55;;;3.38;;
16845;SDS011;8539;53.188;8.696;2023-03-03T22:19:10;22.63;;;3.85;;